Flight Track Log - Related Links

Times and Time Zones

All times are in EDT time to prevent confusion due to time zone crossing. See the NKS236 flight status page for this flight to view local times or setup timezone preferences in your user account.


Time Position Orientation Groundspeed Altitude Reporting Facility
EDT Latitude Longitude Course Direction KTS MPH feet Rate Location/Type
Wed 03:42:07 PM 9.7480 -75.8280 348° North 457 526 36,000  Level FlightAware ADS-B
Wed 03:43:02 PM 9.8630 -75.8500 349° North 456 525 35,900  Descending FlightAware ADS-B
Wed 03:43:47 PM 9.9540 -75.8690 348° North 443 510 36,000 71 Climbing FlightAware ADS-B
Wed 03:44:27 PM 10.0280 -75.8830 349° North 442 509 36,000  Level FlightAware ADS-B
Wed 03:45:07 PM 10.1150 -75.8990 350° North 446 513 36,000  Level FlightAware ADS-B
Wed 03:45:52 PM 10.2060 -75.9170 349° North 441 507 36,000  Level FlightAware ADS-B
Wed 03:46:32 PM 10.2890 -75.9340 349° North 445 512 36,000  Level FlightAware ADS-B
Wed 03:47:12 PM 10.3770 -75.9510 349° North 444 511 36,000  Level FlightAware ADS-B
Wed 03:47:47 PM 10.4500 -75.9660 349° North 444 511 36,000  Level FlightAware ADS-B
Wed 03:48:42 PM 10.5630 -75.9880 349° North 442 509 36,000  Level FlightAware ADS-B
Wed 03:49:17 PM 10.6340 -76.0020 349° North 441 507 36,000  Level FlightAware ADS-B
Wed 03:50:02 PM 10.7200 -76.0190 349° North 440 506 36,000 -60 Level FlightAware ADS-B
Wed 03:50:57 PM 10.8340 -76.0430 348° North 441 507 35,900 -63 Descending FlightAware ADS-B
Wed 03:51:37 PM 10.9160 -76.0580 350° North 440 506 35,900  Level FlightAware ADS-B
Wed 03:52:32 PM 11.0280 -76.0810 349° North 440 506 35,900  Level FlightAware ADS-B
Wed 03:53:22 PM 11.1120 -76.1000 347° North 440 506 35,900  Level FlightAware ADS-B
Wed 03:53:52 PM 11.1630 -76.1110 348° North 440 506 35,900  Level FlightAware ADS-B
Wed 03:54:42 PM 11.2480 -76.1290 348° North 440 506 35,900  Level FlightAware ADS-B
Wed 03:55:22 PM 11.3160 -76.1440 348° North 440 506 35,900  Level FlightAware ADS-B
Wed 03:56:02 PM 11.3830 -76.1580 348° North 440 506 35,900  Level FlightAware ADS-B
Wed 03:56:52 PM 11.4680 -76.1770 348° North 440 506 35,900  Level FlightAware ADS-B
Wed 03:57:32 PM 11.5360 -76.1910 349° North 440 506 35,900  Level FlightAware ADS-B
Wed 03:58:12 PM 11.6030 -76.2060 348° North 440 506 35,900  Level FlightAware ADS-B
Wed 03:58:52 PM 11.6710 -76.2210 348° North 440 506 35,900  Level FlightAware ADS-B
Wed 03:59:32 PM 11.7390 -76.2350 349° North 440 506 35,900  Level FlightAware ADS-B
Wed 04:00:22 PM 11.8230 -76.2540 348° North 440 506 35,900  Level FlightAware ADS-B
Wed 04:01:02 PM 11.8910 -76.2680 349° North 440 506 35,900  Level FlightAware ADS-B
Wed 04:01:42 PM 11.9590 -76.2830 348° North 440 506 35,900 24 Level FlightAware ADS-B
Wed 04:04:00 PM 12.2886 -76.3667 346° North  Level Estimated
Wed 04:05:00 PM 12.4320 -76.4032 346° North  Level Estimated
Wed 04:06:00 PM 12.5753 -76.4397 346° North  Level Estimated
Wed 04:07:00 PM 12.7186 -76.4763 346° North  Level Estimated
Wed 04:08:00 PM 12.8619 -76.5128 346° North  Level Estimated
Wed 04:09:00 PM 13.0052 -76.5495 346° North  Level Estimated
Wed 04:10:00 PM 13.1485 -76.5862 346° North  Level Estimated
Wed 04:11:00 PM 13.2918 -76.6229 346° North  Level Estimated
Wed 04:12:00 PM 13.4351 -76.6596 346° North  Level Estimated
Wed 04:13:00 PM 13.5783 -76.6964 346° North  Level Estimated
Wed 04:14:00 PM 13.7216 -76.7333 346° North  Level Estimated
Wed 04:15:00 PM 13.8649 -76.7702 346° North  Level Estimated
Wed 04:16:00 PM 14.0081 -76.8071 346° North  Level Estimated
Wed 04:17:00 PM 14.1514 -76.8441 346° North  Level Estimated
Wed 04:18:00 PM 14.2946 -76.8812 346° North  Level Estimated
Wed 04:19:00 PM 14.4379 -76.9182 346° North  Level Estimated
Wed 04:20:00 PM 14.5811 -76.9554 346° North  Level Estimated
Wed 04:21:00 PM 14.7243 -76.9926 346° North  Level Estimated
Wed 04:22:00 PM 14.8676 -77.0298 346° North  Level Estimated
Wed 04:23:00 PM 15.0108 -77.0671 346° North  Level Estimated
Wed 04:24:00 PM 15.1540 -77.1044 346° North  Level Estimated
Wed 04:25:00 PM 15.2972 -77.1418 346° North  Level Estimated
Wed 04:26:00 PM 15.4404 -77.1792 346° North  Level Estimated
Wed 04:27:00 PM 15.5836 -77.2167 346° North  Level Estimated
Wed 04:28:00 PM 15.7268 -77.2542 346° North  Level Estimated
Wed 04:29:00 PM 15.8700 -77.2918 346° North  Level Estimated
Wed 04:30:00 PM 16.0131 -77.3294 346° North  Level Estimated
Wed 04:31:00 PM 16.1563 -77.3671 346° North  Level Estimated
Wed 04:32:00 PM 16.2995 -77.4049 346° North  Level Estimated
Wed 04:33:00 PM 16.4426 -77.4427 346° North  Level Estimated
Wed 04:34:00 PM 16.5858 -77.4805 346° North  Level Estimated
Wed 04:35:00 PM 16.7289 -77.5184 346° North  Level Estimated
Wed 04:36:00 PM 16.8721 -77.5564 346° North  Level Estimated
Wed 04:37:00 PM 17.0152 -77.5944 346° North  Level Estimated
Wed 04:38:00 PM 17.1583 -77.6325 346° North  Level Estimated
Wed 04:39:00 PM 17.3014 -77.6707 346° North  Level Estimated
Wed 04:40:00 PM 17.4445 -77.7089 346° North  Level Estimated
Wed 04:41:00 PM 17.5876 -77.7471 346° North  Level Estimated
Wed 04:42:00 PM 17.7307 -77.7855 346° North  Level Estimated
Wed 04:43:00 PM 17.8738 -77.8239 346° North  Level Estimated
Wed 04:44:00 PM 18.0169 -77.8623 346° North  Level Estimated
Wed 04:45:00 PM 18.1600 -77.9008 346° North  Level Estimated
Wed 04:46:00 PM 18.3030 -77.9394 346° North  Level Estimated
Wed 04:47:00 PM 18.4461 -77.9780 346° North  Level Estimated
Wed 04:48:00 PM 18.5891 -78.0167 346° North  Level Estimated
Wed 04:49:00 PM 18.7321 -78.0555 346° North  Level Estimated
Wed 04:50:00 PM 18.8752 -78.0943 346° North  Level Estimated
Wed 04:51:00 PM 19.0182 -78.1332 346° North  Level Estimated
Wed 04:52:00 PM 19.1612 -78.1722 346° North  Level Estimated
Wed 04:53:00 PM 19.3042 -78.2112 346° North  Level Estimated
Wed 04:54:00 PM 19.4472 -78.2503 346° North  Level Estimated
Wed 04:55:00 PM 19.5902 -78.2895 346° North  Level Estimated
Wed 04:56:00 PM 19.7332 -78.3287 346° North  Level Estimated
Wed 04:57:00 PM 19.8762 -78.3680 346° North  Level Estimated
Wed 04:58:00 PM 20.0191 -78.4074 345° North  Level Estimated
Wed 04:59:00 PM 20.1621 -78.4469 345° North  Level Estimated
Wed 05:00:00 PM 20.3050 -78.4864 345° North  Level Estimated
Wed 05:01:00 PM 20.4480 -78.5260 345° North  Level Estimated
Wed 05:02:00 PM 20.5909 -78.5657 345° North  Level Estimated
Wed 05:03:00 PM 20.7338 -78.6054 345° North  Level Estimated
Wed 05:04:00 PM 20.8767 -78.6452 345° North  Level Estimated
Wed 05:05:00 PM 21.0196 -78.6852 345° North  Level Estimated
Wed 05:06:00 PM 21.1625 -78.7251 345° North  Level Estimated
Wed 05:07:00 PM 21.3054 -78.7652 345° North  Level Estimated
Wed 05:08:00 PM 21.4483 -78.8053 345° North  Level Estimated
Wed 05:09:00 PM 21.5911 -78.8455 345° North  Level Estimated
Wed 05:10:00 PM 21.7340 -78.8858 345° North  Level Estimated
Wed 05:11:00 PM 21.8768 -78.9262 345° North  Level Estimated
Wed 05:12:00 PM 22.0196 -78.9666 345° North  Level Estimated
Wed 05:13:00 PM 22.1625 -79.0071 345° North  Level Estimated
Wed 05:14:00 PM 22.3053 -79.0478 345° North  Level Estimated
Wed 05:15:00 PM 22.4481 -79.0885 345° North  Level Estimated
Wed 05:16:00 PM 22.5909 -79.1292 345° North  Level Estimated
Wed 05:17:00 PM 22.7336 -79.1701 345° North  Level Estimated
Wed 05:18:00 PM 22.8764 -79.2111 345° North  Level Estimated
Wed 05:19:00 PM 23.0192 -79.2521 345° North  Level Estimated
Wed 05:20:00 PM 23.1619 -79.2932 345° North  Level Estimated
Wed 05:21:00 PM 23.3047 -79.3344 345° North  Level Estimated
Wed 05:22:00 PM 23.4474 -79.3757 345° North  Level Estimated
Wed 05:23:00 PM 23.5901 -79.4171 345° North  Level Estimated
Wed 05:24:00 PM 23.7328 -79.4586 345° North  Level Estimated
Wed 05:25:00 PM 23.8755 -79.5002 345° North  Level Estimated
Wed 05:26:00 PM 24.0182 -79.5418 345° North  Level Estimated
Wed 05:27:00 PM 24.1609 -79.5836 345° North  Level Estimated
Wed 05:28:00 PM 24.3035 -79.6254 345° North  Level Estimated
Wed 05:29:00 PM 24.4462 -79.6674 345° North  Level Estimated
Wed 05:29:34 PM 23.2258 -78.6156 345° North 460 529 38,000  Level Miami Center
Wed 05:30:00 PM 24.5617 -79.7014 345° North  Level Estimated
Wed 05:30:34 PM 23.3336 -78.6781 332° Northwest 445 512 38,000  Level Miami Center
Wed 05:31:00 PM 24.6771 -79.7355 345° North  Level Estimated
Wed 05:31:34 PM 23.4458 -78.7408 333° Northwest 449 517 38,000  Level Miami Center
Wed 05:32:00 PM 24.7926 -79.7696 345° North  Level Estimated
Wed 05:32:34 PM 23.5617 -78.8150 330° Northwest 449 517 38,000  Level Miami Center
Wed 05:33:00 PM 24.9081 -79.8038 345° North  Level Estimated
Wed 05:33:34 PM 23.6717 -78.8781 332° Northwest 456 525 38,000  Level Miami Center
Wed 05:34:00 PM 25.0235 -79.8381 345° North  Level Estimated
Wed 05:34:34 PM 23.7794 -78.9433 331° Northwest 447 514 38,000  Level Miami Center
Wed 05:35:34 PM 23.8956 -79.0133 331° Northwest 458 527 38,000  Level Miami Center
Wed 05:36:34 PM 24.0158 -79.0656 338° Northwest 377 434 38,000 -350 Level Miami Center
Wed 05:37:34 PM 24.1389 -79.0881 351° North 466 536 37,300 -2,095 Descending Miami Center
Wed 05:43:12 PM 24.8880 -79.1860 351° North 469 540 24,100 -2,270 Descending FlightAware ADS-B
Wed 05:44:37 PM 25.0630 -79.2090 353° North 434 499 21,300 -1,986 Descending FlightAware ADS-B
Wed 05:45:37 PM 25.1830 -79.2250 353° North 418 481 19,300 -1,985 Descending FlightAware ADS-B
Wed 05:46:47 PM 25.3150 -79.2430 353° North 404 465 17,000 -2,084 Descending FlightAware ADS-B
Wed 05:47:12 PM 25.3550 -79.2570 342° North 385 443 16,000 -2,215 Descending FlightAware ADS-B
Wed 05:47:52 PM 25.4150 -79.3030 325° Northwest 371 427 14,600 -2,320 Descending FlightAware ADS-B
Wed 05:48:27 PM 25.4650 -79.3410 326° Northwest 370 426 13,100 -2,259 Descending FlightAware ADS-B
Wed 05:49:17 PM 25.5340 -79.3920 326° Northwest 350 403 11,400 -2,345 Descending FlightAware ADS-B
Wed 05:50:17 PM 25.6190 -79.4560 326° Northwest 345 397 8,800 -2,400 Descending FlightAware ADS-B
Wed 05:50:42 PM 25.6460 -79.4770 325° Northwest 338 389 8,000 -2,229 Descending FlightAware ADS-B
Wed 05:50:52 PM 25.6620 -79.4880 328° Northwest 338 389 7,500 -1,629 Descending FlightAware ADS-B
Wed 05:51:52 PM 25.7340 -79.5430 325° Northwest 310 357 6,100 -873 Descending FlightAware ADS-B
Wed 05:52:42 PM 25.7880 -79.5840 326° Northwest 276 318 5,900 -160 Descending FlightAware ADS-B
Wed 05:53:07 PM 25.8170 -79.6060 326° Northwest 275 316 5,900  Level FlightAware ADS-B
Wed 05:53:52 PM 25.8580 -79.6460 319° Northwest 270 311 5,900  Level FlightAware ADS-B
Wed 05:54:22 PM 25.8760 -79.6840 298° West 270 311 5,900  Level FlightAware ADS-B
Wed 05:55:12 PM 25.9060 -79.7440 299° West 267 307 5,900  Level FlightAware ADS-B
Wed 05:55:42 PM 25.9250 -79.7800 300° West 268 308 5,900  Level FlightAware ADS-B
Wed 05:56:27 PM 25.9520 -79.8340 299° West 265 305 5,900  Level FlightAware ADS-B
Wed 05:56:52 PM 25.9680 -79.8640 301° West 265 305 5,900  Level FlightAware ADS-B
Wed 05:57:52 PM 26.0060 -79.9340 301° West 259 298 5,900  Level FlightAware ADS-B
Wed 05:58:07 PM 26.0150 -79.9510 301° West 258 297 5,900  Level FlightAware ADS-B
Wed 05:58:32 PM 26.0320 -79.9810 302° West 260 299 5,900  Level FlightAware ADS-B
Wed 05:59:02 PM 26.0510 -80.0160 301° West 259 298 5,900  Level FlightAware ADS-B
Wed 05:59:27 PM 26.0670 -80.0450 302° West 262 302 5,900  Level FlightAware ADS-B
Wed 05:59:57 PM 26.0860 -80.0800 301° West 259 298 5,900  Level FlightAware ADS-B
Wed 06:00:22 PM 26.1010 -80.1070 302° West 238 274 5,900  Level FlightAware ADS-B
Wed 06:00:42 PM 26.1120 -80.1270 301° West 225 259 5,900  Level FlightAware ADS-B
Wed 06:01:07 PM 26.1260 -80.1520 302° West 221 254 5,900 -327 Level FlightAware ADS-B
Wed 06:01:37 PM 26.1390 -80.1830 295° West 222 255 5,600 -750 Descending FlightAware ADS-B
Wed 06:01:47 PM 26.1400 -80.1930 276° West 221 254 5,400 -1,200 Descending FlightAware ADS-B
Wed 06:02:17 PM 26.1400 -80.2290 270° West 226 260 4,800 -1,200 Descending FlightAware ADS-B
Wed 06:02:47 PM 26.1410 -80.2620 272° West 227 261 4,200 -1,200 Descending FlightAware ADS-B
Wed 06:03:02 PM 26.1420 -80.2810 273° West 226 260 3,900 -1,200 Descending FlightAware ADS-B
Wed 06:03:27 PM 26.1320 -80.3060 246° West 206 237 3,400 -1,500 Descending FlightAware ADS-B
Wed 06:03:42 PM 26.1170 -80.3110 197° South 210 242 2,900 -2,100 Descending FlightAware ADS-B
Wed 06:04:07 PM 26.0920 -80.3070 172° South 220 253 2,000 -1,800 Descending FlightAware ADS-B
Wed 06:04:22 PM 26.0790 -80.2990 151° Southeast 217 250 1,700 -1,000 Descending FlightAware ADS-B
Wed 06:04:37 PM 26.0740 -80.2840 110° East 204 235 1,500 -533 Descending FlightAware ADS-B
Wed 06:05:07 PM 26.0770 -80.2560 83° East 173 199 1,300 -450 Descending FlightAware ADS-B
Wed 06:05:17 PM 26.0770 -80.2470 90° East 163 188 1,200 -600 Descending FlightAware ADS-B
Wed 06:05:47 PM 26.0770 -80.2230 90° East 160 184 900 -800 Descending FlightAware ADS-B
Wed 06:06:02 PM 26.0770 -80.2100 90° East 155 178 600 -857 Descending FlightAware ADS-B
Wed 06:06:22 PM 26.0770 -80.1950 90° East 143 165 400 -369 Descending FlightAware ADS-B
Wed 06:07:07 PM 26.0770 -80.1660 90° East 140 161 200 -267 Descending FlightAware ADS-B

Login

Don't have an account? Register now (free) for customized features, flight alerts, and more!